Time;durP1;ratioP1;P1;durP2;ratioP2;P2;SDS_P1;SDS_P2;PMS_P1;PMS_P2;Temp;Humidity;BMP_temperature;BMP_pressure;BME280_temperature;BME280_humidity;BME280_pressure;Samples;Min_cycle;Max_cycle;Signal;HPM_P1;HPM_P2
2021/10/01 00:01:26;;;;;;;;;0.00;0.00;;;;;15.71;52.01;101795.75;5020943;28;45382;-81
2021/10/01 00:03:51;;;;;;;;;3.33;1.00;;;;;15.70;51.97;101801.97;5015197;28;61814;-77
2021/10/01 00:06:17;;;;;;;;;2.00;0.67;;;;;15.69;51.80;101792.22;5016012;28;53073;-76
2021/10/01 00:08:42;;;;;;;;;2.00;1.00;;;;;15.66;52.08;101790.44;5016289;28;45428;-76
2021/10/01 00:11:07;;;;;;;;;1.00;1.00;;;;;15.65;52.11;101790.41;5016432;28;47386;-80
2021/10/01 00:13:33;;;;;;;;;2.00;0.67;;;;;15.65;52.20;101793.94;5015738;28;46366;-80
2021/10/01 00:15:58;;;;;;;;;1.00;1.00;;;;;15.62;52.03;101780.59;5015703;28;58384;-82
2021/10/01 00:18:23;;;;;;;;;1.00;1.00;;;;;15.63;52.39;101785.06;5015044;28;49179;-78
2021/10/01 00:20:49;;;;;;;;;2.00;1.00;;;;;15.61;51.51;101783.28;5003482;28;52072;-79
2021/10/01 00:23:14;;;;;;;;;1.00;1.00;;;;;15.62;51.85;101783.28;5015988;28;47332;-76
2021/10/01 00:25:40;;;;;;;;;2.00;0.33;;;;;15.60;52.33;101782.34;5015604;28;45301;-76
2021/10/01 00:28:05;;;;;;;;;2.00;0.67;;;;;15.60;52.14;101785.00;5015464;28;57305;-76
2021/10/01 00:30:30;;;;;;;;;1.67;0.33;;;;;15.58;52.47;101789.44;5018057;28;45518;-76
2021/10/01 00:32:58;;;;;;;;;1.00;1.00;;;;;15.52;52.53;101784.09;5011042;28;61185;-76
2021/10/01 00:35:23;;;;;;;;;1.00;1.00;;;;;15.52;52.70;101783.22;5013656;28;45374;-78
2021/10/01 00:37:50;;;;;;;;;1.00;1.00;;;;;15.52;52.76;101789.41;5008548;28;45267;-76
2021/10/01 00:40:15;;;;;;;;;0.00;0.00;;;;;15.50;52.97;101774.31;5010100;28;52934;-78
2021/10/01 00:42:41;;;;;;;;;0.00;0.00;;;;;15.49;52.54;101784.06;5013855;28;45537;-76
2021/10/01 00:45:06;;;;;;;;;1.00;1.00;;;;;15.43;52.61;101774.28;5013185;28;57614;-76
2021/10/01 00:47:32;;;;;;;;;1.00;1.00;;;;;15.46;52.68;101778.75;5011720;28;45194;-76
2021/10/01 00:49:57;;;;;;;;;1.00;1.00;;;;;15.44;53.15;101776.03;4997653;28;52869;-76
2021/10/01 00:52:23;;;;;;;;;0.67;0.33;;;;;15.42;52.98;101766.28;5015764;28;47379;-75
2021/10/01 00:54:48;;;;;;;;;2.00;1.00;;;;;15.39;52.72;101767.19;5015527;28;45271;-78
2021/10/01 00:57:14;;;;;;;;;2.00;1.00;;;;;15.40;52.60;101765.41;5018132;28;45333;-82
2021/10/01 00:59:39;;;;;;;;;1.00;1.00;;;;;15.36;52.81;101753.84;5021058;28;45391;-76
2021/10/01 01:02:05;;;;;;;;;0.00;0.00;;;;;15.37;52.86;101757.38;5018818;28;46367;-75
2021/10/01 01:04:31;;;;;;;;;2.00;1.00;;;;;15.36;53.01;101760.94;5018907;28;45582;-82
2021/10/01 01:07:23;;;;;;;;;1.67;1.00;;;;;15.34;53.06;101762.66;4981177;28;45860;-77
2021/10/01 01:10:01;;;;;;;;;0.00;0.00;;;;;15.32;53.27;101752.03;5003062;28;45454;-78
2021/10/01 01:12:35;;;;;;;;;3.67;0.67;;;;;15.30;53.71;101752.91;5012429;28;47163;-76
2021/10/01 01:15:12;;;;;;;;;2.00;1.00;;;;;15.26;53.60;101748.44;4999826;28;45377;-76
2021/10/01 01:17:40;;;;;;;;;1.00;1.00;;;;;15.24;53.86;101747.56;4981509;28;45532;-75
2021/10/01 01:20:10;;;;;;;;;1.67;1.67;;;;;15.20;53.71;101738.66;5012473;28;45504;-76
2021/10/01 01:23:02;;;;;;;;;2.00;2.00;;;;;15.20;53.68;101743.97;5001268;28;45618;-82
2021/10/01 01:25:59;;;;;;;;;1.00;1.00;;;;;15.20;53.91;101744.88;4974369;28;45372;-76
2021/10/01 01:28:54;;;;;;;;;1.33;0.33;;;;;15.16;54.23;101737.72;5000821;28;45459;-77
2021/10/01 01:31:44;;;;;;;;;1.00;1.00;;;;;15.13;54.39;101732.41;5016684;28;45465;-76
2021/10/01 01:34:12;;;;;;;;;2.33;1.00;;;;;15.09;54.37;101725.28;5023324;28;45612;-75
2021/10/01 01:36:37;;;;;;;;;4.67;1.00;;;;;15.06;54.36;101719.03;4992443;28;45519;-79
2021/10/01 01:39:03;;;;;;;;;1.67;1.00;;;;;15.06;54.90;101732.34;5000602;28;45952;-75
2021/10/01 01:41:28;;;;;;;;;0.00;0.00;;;;;15.03;54.68;101719.03;5000571;28;46087;-80
2021/10/01 01:43:54;;;;;;;;;2.33;1.67;;;;;15.01;54.60;101721.66;4982832;28;54788;-76
2021/10/01 01:46:19;;;;;;;;;1.00;1.00;;;;;14.97;54.72;101705.66;5000322;28;45340;-75
2021/10/01 01:48:45;;;;;;;;;0.00;0.00;;;;;14.92;55.12;101705.66;5000671;28;45384;-77
2021/10/01 01:51:10;;;;;;;;;1.33;1.00;;;;;14.90;55.53;101704.75;4984066;28;47392;-75
2021/10/01 01:53:36;;;;;;;;;3.33;2.00;;;;;14.86;55.32;101700.28;4984161;28;46204;-77
2021/10/01 01:56:01;;;;;;;;;5.00;3.67;;;;;14.85;55.21;101702.06;4999863;28;45460;-75
2021/10/01 01:58:27;;;;;;;;;5.67;3.00;;;;;14.79;55.97;101691.38;5018143;28;45412;-78
2021/10/01 02:00:52;;;;;;;;;8.33;4.00;;;;;14.77;55.53;101693.16;4988489;28;45465;-77
2021/10/01 02:03:18;;;;;;;;;5.67;3.00;;;;;14.75;56.13;101680.69;4982697;28;61876;-82
2021/10/01 02:05:44;;;;;;;;;6.00;3.00;;;;;14.72;56.06;101686.91;4983064;28;53639;-75
2021/10/01 02:08:09;;;;;;;;;3.00;2.00;;;;;14.67;56.39;101684.19;5000090;28;45495;-80
2021/10/01 02:10:37;;;;;;;;;1.00;1.00;;;;;14.67;56.03;101683.31;5000559;28;45470;-75
2021/10/01 02:13:02;;;;;;;;;1.00;1.00;;;;;14.67;56.41;101676.22;4999922;28;46599;-76
2021/10/01 02:15:28;;;;;;;;;2.33;1.00;;;;;14.65;56.68;101675.34;4983200;28;47849;-79
2021/10/01 02:17:55;;;;;;;;;2.67;0.67;;;;;14.70;56.21;101675.38;5017906;28;45331;-78
2021/10/01 02:20:20;;;;;;;;;1.00;1.00;;;;;14.67;56.19;101678.88;5000386;28;45235;-78
2021/10/01 02:22:46;;;;;;;;;2.00;1.00;;;;;14.65;57.00;101663.81;4999260;28;59974;-77
2021/10/01 02:27:58;;;;;;;;;2.00;2.00;;;;;14.62;57.19;101653.16;5017832;28;45210;-79
2021/10/01 02:30:23;;;;;;;;;1.33;1.33;;;;;14.59;56.83;101646.03;4988968;28;45298;-76
2021/10/01 02:32:51;;;;;;;;;1.00;1.00;;;;;14.61;56.83;101649.59;5003126;28;53564;-75
2021/10/01 02:35:16;;;;;;;;;2.00;1.00;;;;;14.59;56.67;101643.38;4998213;28;45416;-80
2021/10/01 02:37:41;;;;;;;;;1.33;1.00;;;;;14.56;57.06;101638.06;5016476;28;45452;-77
2021/10/01 02:40:07;;;;;;;;;0.00;0.00;;;;;14.53;57.35;101637.13;4997630;28;45496;-75
2021/10/01 02:42:33;;;;;;;;;1.00;1.00;;;;;14.49;57.15;101643.28;4996884;28;46351;-75
2021/10/01 02:44:58;;;;;;;;;1.00;1.00;;;;;14.45;57.53;101639.69;5017322;28;45321;-76
2021/10/01 02:47:29;;;;;;;;;1.33;1.33;;;;;14.38;57.62;101633.47;5017193;28;45285;-77
2021/10/01 02:49:55;;;;;;;;;1.00;1.00;;;;;14.37;57.75;101636.06;5000065;28;45479;-76
2021/10/01 02:52:26;;;;;;;;;2.00;1.00;;;;;14.33;57.43;101637.84;5016654;28;45684;-79
2021/10/01 02:55:17;;;;;;;;;1.00;1.00;;;;;14.27;57.76;101634.22;5005332;28;45459;-76
2021/10/01 02:57:49;;;;;;;;;2.00;0.00;;;;;14.27;57.84;101639.53;5001768;28;45397;-76
2021/10/01 03:00:15;;;;;;;;;1.00;1.00;;;;;14.25;58.32;101630.66;4984797;28;45385;-80
2021/10/01 03:02:41;;;;;;;;;1.00;1.00;;;;;14.22;58.48;101625.31;4976801;28;46240;-77
2021/10/01 03:05:06;;;;;;;;;1.00;1.00;;;;;14.21;58.08;101615.56;4982960;28;45472;-75
2021/10/01 03:07:33;;;;;;;;;1.00;1.00;;;;;14.18;58.88;101613.81;4999478;28;45456;-76
2021/10/01 03:09:59;;;;;;;;;3.33;1.00;;;;;14.14;58.39;101614.63;4983520;28;45380;-78
2021/10/01 03:12:25;;;;;;;;;1.00;1.00;;;;;14.09;58.63;101605.75;4982804;28;46057;-75
2021/10/01 03:14:50;;;;;;;;;3.00;1.00;;;;;14.10;59.07;101612.81;4982298;28;57141;-77
2021/10/01 03:17:17;;;;;;;;;1.00;1.00;;;;;14.06;58.88;101614.59;4999157;28;45344;-74
2021/10/01 03:19:42;;;;;;;;;0.33;0.00;;;;;14.01;59.12;101597.72;5003563;28;45559;-79
2021/10/01 03:22:08;;;;;;;;;1.00;1.00;;;;;13.99;59.17;101607.41;4982265;28;58112;-75
2021/10/01 03:24:33;;;;;;;;;2.00;1.00;;;;;13.95;59.58;101604.72;4982806;28;45383;-75
2021/10/01 03:26:59;;;;;;;;;2.67;0.67;;;;;13.95;59.51;101605.59;4998884;28;45246;-75
2021/10/01 03:29:24;;;;;;;;;2.00;1.00;;;;;13.93;59.55;101607.38;4982326;28;51378;-77
2021/10/01 03:31:50;;;;;;;;;0.33;0.33;;;;;13.91;59.34;101605.59;4980589;28;58460;-75
2021/10/01 03:34:16;;;;;;;;;0.33;0.00;;;;;13.88;59.92;101595.81;5019283;28;45519;-76
2021/10/01 03:36:43;;;;;;;;;2.00;0.00;;;;;13.76;59.56;101579.78;5016227;28;45316;-79
2021/10/01 03:39:08;;;;;;;;;2.00;0.67;;;;;13.82;59.57;101593.97;5016416;28;45273;-78
2021/10/01 03:41:34;;;;;;;;;4.00;1.00;;;;;13.81;59.57;101592.22;4999218;28;45853;-78
2021/10/01 03:43:59;;;;;;;;;0.33;0.33;;;;;13.79;60.12;101588.63;4998698;28;45549;-77
2021/10/01 03:46:25;;;;;;;;;1.00;1.00;;;;;13.77;60.01;101587.75;5016675;28;45891;-77
2021/10/01 03:48:50;;;;;;;;;1.00;1.00;;;;;13.77;60.32;101573.59;5016862;28;45372;-75
2021/10/01 03:51:16;;;;;;;;;2.33;1.00;;;;;13.77;60.37;101573.59;5015560;28;63088;-75
2021/10/01 03:53:41;;;;;;;;;2.00;1.00;;;;;13.74;60.35;101570.88;5016850;28;45238;-75
2021/10/01 03:56:14;;;;;;;;;1.67;1.67;;;;;13.74;60.35;101569.16;5016633;28;45254;-75
2021/10/01 03:58:39;;;;;;;;;1.00;1.00;;;;;13.76;60.54;101567.38;5016724;28;45382;-79
2021/10/01 04:01:05;;;;;;;;;1.00;1.00;;;;;13.78;60.88;101570.03;5024167;28;61989;-78
2021/10/01 04:03:30;;;;;;;;;0.67;0.67;;;;;13.77;60.79;101568.28;5015989;28;55849;-74
2021/10/01 04:05:55;;;;;;;;;1.00;1.00;;;;;13.77;60.89;101557.66;5015595;28;55909;-75
2021/10/01 04:08:21;;;;;;;;;1.33;1.33;;;;;13.78;60.90;101556.78;4999037;28;45455;-78
2021/10/01 04:10:48;;;;;;;;;1.00;1.00;;;;;13.80;60.92;101557.69;5015819;28;54658;-79
2021/10/01 04:13:13;;;;;;;;;2.67;1.67;;;;;13.78;60.50;101549.69;5008106;28;45484;-80
2021/10/01 04:15:38;;;;;;;;;3.00;1.33;;;;;13.80;60.50;101558.59;4992374;28;45736;-75
2021/10/01 04:18:04;;;;;;;;;3.67;2.00;;;;;13.81;61.06;101554.16;5015516;28;56126;-75
2021/10/01 04:20:29;;;;;;;;;1.67;1.67;;;;;13.80;60.81;101555.94;5015126;28;46293;-80
2021/10/01 04:22:55;;;;;;;;;1.67;1.67;;;;;13.78;61.16;101560.31;5008043;28;45496;-74
2021/10/01 04:25:20;;;;;;;;;1.67;1.67;;;;;13.78;60.74;101559.44;4997984;28;45375;-76
2021/10/01 04:27:45;;;;;;;;;1.67;1.67;;;;;13.76;60.69;101562.06;4998672;28;45196;-75
2021/10/01 04:30:11;;;;;;;;;1.67;0.67;;;;;13.69;61.35;101548.72;5018180;28;60173;-75
2021/10/01 04:32:43;;;;;;;;;2.00;1.00;;;;;13.74;61.07;101553.22;5017663;28;45498;-75
2021/10/01 04:35:09;;;;;;;;;3.67;2.00;;;;;13.73;61.23;101561.16;5020624;28;45348;-75
2021/10/01 04:37:35;;;;;;;;;4.67;2.00;;;;;13.72;61.05;101551.41;5014434;28;45452;-78
2021/10/01 04:40:00;;;;;;;;;4.33;2.00;;;;;13.73;61.06;101551.41;5014646;28;60180;-75
2021/10/01 04:42:25;;;;;;;;;8.67;4.00;;;;;13.73;61.26;101554.06;5017319;28;45250;-75
2021/10/01 04:44:51;;;;;;;;;2.00;2.00;;;;;13.73;61.13;101545.22;5021812;28;47919;-75
2021/10/01 04:47:16;;;;;;;;;3.67;2.00;;;;;13.72;61.32;101541.69;5017696;28;47409;-81
2021/10/01 04:49:42;;;;;;;;;2.00;2.00;;;;;13.71;61.34;101544.34;5013661;28;50778;-81
2021/10/01 04:52:07;;;;;;;;;2.33;2.00;;;;;13.75;61.16;101546.16;5020125;28;45425;-78
2021/10/01 04:54:32;;;;;;;;;2.33;1.67;;;;;13.76;61.14;101562.06;5024148;28;45396;-77
2021/10/01 04:56:58;;;;;;;;;2.00;2.00;;;;;13.76;61.06;101539.97;5020058;28;45206;-78
2021/10/01 04:59:23;;;;;;;;;4.67;2.67;;;;;13.78;61.36;101549.69;5018120;28;48683;-78
2021/10/01 05:01:49;;;;;;;;;3.67;2.00;;;;;13.74;61.38;101542.59;5022426;28;58279;-77
2021/10/01 05:04:14;;;;;;;;;3.00;2.00;;;;;13.78;61.28;101544.38;5018411;28;45538;-76
2021/10/01 05:06:41;;;;;;;;;9.67;6.67;;;;;13.84;61.20;101540.91;5017847;28;47342;-74
2021/10/01 05:09:07;;;;;;;;;3.67;1.00;;;;;13.87;61.17;101552.44;5017290;28;46636;-74
2021/10/01 05:11:32;;;;;;;;;7.00;3.00;;;;;13.84;61.49;101532.94;4984134;28;45482;-75
2021/10/01 05:13:57;;;;;;;;;2.00;2.00;;;;;13.89;60.97;101545.38;5016358;28;49541;-78
2021/10/01 05:16:23;;;;;;;;;2.00;2.00;;;;;13.92;61.40;101547.19;5017386;28;45337;-75
2021/10/01 05:18:48;;;;;;;;;4.33;4.00;;;;;13.91;61.34;101539.22;5015615;28;50559;-76
2021/10/01 05:21:13;;;;;;;;;2.67;1.00;;;;;13.96;61.56;101540.16;5017369;28;45346;-74
2021/10/01 05:23:39;;;;;;;;;2.67;1.67;;;;;13.98;61.20;101536.59;5018401;28;45293;-77
2021/10/01 05:26:04;;;;;;;;;3.33;1.00;;;;;13.96;60.78;101533.06;5011757;28;47119;-74
2021/10/01 05:28:30;;;;;;;;;3.33;2.00;;;;;14.02;61.02;101532.22;5023269;28;61445;-74
2021/10/01 05:30:55;;;;;;;;;1.33;1.33;;;;;14.03;60.59;101536.66;5035805;28;47080;-77
2021/10/01 05:33:20;;;;;;;;;3.67;3.00;;;;;14.01;61.17;101530.41;5016809;28;45315;-75
2021/10/01 05:35:47;;;;;;;;;3.00;2.00;;;;;14.00;61.41;101534.84;5032364;28;45456;-77
2021/10/01 05:38:13;;;;;;;;;3.00;2.00;;;;;14.00;61.53;101541.91;5023986;28;46448;-76
2021/10/01 05:40:39;;;;;;;;;3.00;2.00;;;;;13.99;61.26;101533.06;5016573;28;45457;-77
2021/10/01 05:43:05;;;;;;;;;2.67;2.00;;;;;13.99;61.38;101529.53;5011914;28;45424;-74
2021/10/01 05:45:30;;;;;;;;;3.00;2.00;;;;;14.00;60.96;101528.66;5012380;28;46610;-74
2021/10/01 05:47:56;;;;;;;;;2.00;2.00;;;;;13.98;61.48;101525.09;5006777;28;45687;-74
2021/10/01 05:50:23;;;;;;;;;2.00;2.00;;;;;14.00;60.95;101518.91;5013097;28;45314;-77
2021/10/01 05:52:53;;;;;;;;;3.00;3.00;;;;;14.01;60.98;101515.41;5016193;28;45412;-78
2021/10/01 05:55:18;;;;;;;;;3.33;3.00;;;;;13.98;60.84;101504.75;5017687;28;45217;-74
2021/10/01 05:57:44;;;;;;;;;3.67;3.00;;;;;14.04;60.64;101509.22;5016902;28;47698;-76
2021/10/01 06:00:10;;;;;;;;;3.00;3.00;;;;;14.05;61.07;101514.53;5017730;28;45378;-75
2021/10/01 06:02:35;;;;;;;;;7.33;2.00;;;;;14.05;60.96;101505.69;5015882;28;45227;-73
2021/10/01 06:05:00;;;;;;;;;2.00;1.67;;;;;14.06;60.96;101511.03;4978590;28;54180;-77
2021/10/01 06:07:26;;;;;;;;;1.67;1.67;;;;;14.05;60.66;101509.22;5018211;28;49426;-76
2021/10/01 06:09:51;;;;;;;;;6.67;3.00;;;;;13.98;60.91;101507.41;5017679;28;55252;-76
2021/10/01 06:12:17;;;;;;;;;4.00;2.33;;;;;13.90;61.27;101506.44;5017486;28;45443;-74
2021/10/01 06:14:42;;;;;;;;;2.00;2.00;;;;;13.83;61.52;101504.63;4999579;28;45454;-78
2021/10/01 06:17:08;;;;;;;;;4.00;2.00;;;;;13.80;61.83;101507.25;5010405;28;45545;-78
2021/10/01 06:19:36;;;;;;;;;3.00;3.00;;;;;13.77;61.47;101502.81;5018088;28;45402;-74
2021/10/01 06:22:02;;;;;;;;;4.00;1.00;;;;;13.81;61.74;101501.97;5008046;28;45508;-73
2021/10/01 06:24:28;;;;;;;;;4.00;2.67;;;;;13.88;61.92;101513.50;5006061;28;46094;-73
2021/10/01 06:26:53;;;;;;;;;2.00;2.00;;;;;13.93;61.50;101509.13;5011567;28;46836;-75
2021/10/01 06:29:19;;;;;;;;;3.00;2.00;;;;;14.01;61.79;101512.75;4995239;28;45494;-75
2021/10/01 06:31:44;;;;;;;;;4.00;2.33;;;;;14.03;61.23;101510.97;5013954;28;47216;-76
2021/10/01 06:34:10;;;;;;;;;4.00;2.00;;;;;14.10;61.38;101499.50;5019911;28;45408;-75
2021/10/01 06:36:36;;;;;;;;;4.00;2.00;;;;;14.16;61.59;101502.22;5013484;28;47213;-75
2021/10/01 06:39:02;;;;;;;;;1.67;1.00;;;;;14.23;61.46;101499.63;5010413;28;46408;-75
2021/10/01 06:41:28;;;;;;;;;4.00;2.33;;;;;14.31;61.20;101501.44;5013927;28;45670;-74
2021/10/01 06:44:02;;;;;;;;;2.00;2.00;;;;;14.37;61.52;101495.25;5011818;28;46328;-75
2021/10/01 06:46:35;;;;;;;;;1.00;1.00;;;;;14.44;61.08;101493.56;5012604;28;47797;-75
2021/10/01 07:35:22;;;;;;;;;0.33;0.00;;;;;15.53;59.21;101508.16;5034808;28;45484;-76
2021/10/01 08:21:01;;;;;;;;;1.00;1.00;;;;;16.16;58.33;101458.47;5046621;28;45255;-76
2021/10/01 08:23:26;;;;;;;;;2.33;1.00;;;;;16.25;59.14;101458.47;5053192;28;46562;-75
2021/10/01 08:25:51;;;;;;;;;1.67;1.00;;;;;16.32;58.74;101443.34;5048210;28;61401;-75
2021/10/01 08:28:17;;;;;;;;;5.00;2.00;;;;;16.45;58.06;101440.59;5049430;28;53776;-75
2021/10/01 08:30:42;;;;;;;;;7.67;4.00;;;;;16.58;58.27;101444.13;5048726;28;45594;-76
2021/10/01 08:33:08;;;;;;;;;2.00;1.00;;;;;16.68;57.90;101448.53;5052948;28;63578;-76
2021/10/01 08:35:33;;;;;;;;;1.00;1.00;;;;;16.77;57.92;101447.63;5037350;28;45364;-73
2021/10/01 08:37:59;;;;;;;;;1.00;1.00;;;;;16.85;57.42;101451.16;5052310;28;45320;-73
2021/10/01 08:40:25;;;;;;;;;0.00;0.00;;;;;16.85;57.40;101444.94;5037399;28;46220;-77
2021/10/01 08:42:51;;;;;;;;;0.67;0.67;;;;;16.88;57.36;101444.91;5050788;28;47534;-75
2021/10/01 08:45:17;;;;;;;;;5.00;1.00;;;;;16.91;57.43;101439.56;5053716;28;45467;-74
2021/10/01 08:47:43;;;;;;;;;0.67;0.67;;;;;16.94;57.21;101439.56;5054357;28;45129;-73
2021/10/01 08:50:09;;;;;;;;;2.00;1.00;;;;;16.93;57.36;101438.66;5021265;28;45486;-74
2021/10/01 08:52:35;;;;;;;;;2.67;1.67;;;;;16.98;57.65;101436.84;5049783;28;46505;-72
2021/10/01 08:55:00;;;;;;;;;1.67;1.67;;;;;17.03;57.49;101421.69;5052007;28;45661;-75
2021/10/01 08:57:26;;;;;;;;;3.00;1.00;;;;;17.10;57.72;101429.66;5051298;28;45475;-72
2021/10/01 08:59:51;;;;;;;;;4.67;1.33;;;;;17.11;57.18;101416.31;5048382;28;45631;-75
2021/10/01 09:02:17;;;;;;;;;1.00;1.00;;;;;17.16;57.07;101419.84;5054531;28;46055;-73
2021/10/01 09:04:43;;;;;;;;;3.00;1.00;;;;;17.18;57.43;101419.84;5044984;28;45910;-73
2021/10/01 09:07:08;;;;;;;;;2.33;1.00;;;;;17.26;57.73;101423.34;5032768;28;45436;-73
2021/10/01 09:09:38;;;;;;;;;4.00;1.00;;;;;17.33;56.98;101426.84;5054792;28;52011;-74
2021/10/01 09:12:04;;;;;;;;;5.00;1.00;;;;;17.38;57.24;101425.03;5054389;28;47230;-74
2021/10/01 09:14:29;;;;;;;;;1.33;1.00;;;;;17.43;57.08;101417.88;5051764;28;45538;-73
2021/10/01 09:16:55;;;;;;;;;4.00;1.00;;;;;17.49;56.86;101423.16;5052466;28;45529;-74
2021/10/01 09:19:20;;;;;;;;;2.33;1.33;;;;;17.51;56.77;101416.03;5047775;28;45607;-74
2021/10/01 09:21:50;;;;;;;;;1.00;1.00;;;;;17.51;56.81;101408.88;5054797;28;46295;-73
2021/10/01 09:24:16;;;;;;;;;1.00;1.00;;;;;17.53;56.78;101406.22;5049937;28;45422;-73
2021/10/01 09:26:50;;;;;;;;;2.33;1.00;;;;;17.60;57.20;101410.59;5037528;28;45486;-76
2021/10/01 09:29:28;;;;;;;;;7.00;7.00;;;;;17.66;57.14;101405.22;5052586;28;45435;-75
2021/10/01 09:31:54;;;;;;;;;2.33;2.00;;;;;17.65;56.80;101411.44;5047760;28;46327;-74
2021/10/01 09:34:22;;;;;;;;;2.00;1.00;;;;;17.64;56.96;101408.81;5053435;28;45568;-75
2021/10/01 09:37:00;;;;;;;;;2.67;1.67;;;;;17.61;56.95;101396.34;5053237;28;45561;-74
2021/10/01 09:39:30;;;;;;;;;4.00;4.00;;;;;17.70;56.64;101403.41;5054481;28;45427;-75
2021/10/01 09:41:57;;;;;;;;;1.67;1.67;;;;;17.71;56.83;101397.16;5054688;28;47758;-74
2021/10/01 09:44:26;;;;;;;;;4.33;3.00;;;;;17.79;56.57;101411.38;5037393;28;45715;-73
2021/10/01 09:46:52;;;;;;;;;3.33;1.00;;;;;17.77;56.54;101408.69;5032757;28;45516;-73
2021/10/01 09:49:19;;;;;;;;;3.00;2.67;;;;;17.83;56.28;101407.75;5055347;28;45679;-75
2021/10/01 09:51:51;;;;;;;;;2.33;1.00;;;;;17.86;56.57;101422.88;5035678;28;47083;-74
2021/10/01 09:54:16;;;;;;;;;1.67;1.33;;;;;17.92;56.43;101417.47;5053123;28;45399;-74
2021/10/01 09:56:42;;;;;;;;;2.67;2.00;;;;;17.96;56.69;101406.75;5050314;28;45576;-73
2021/10/01 09:59:23;;;;;;;;;2.00;2.00;;;;;17.99;56.56;101405.81;5052471;28;45396;-75
2021/10/01 10:02:08;;;;;;;;;1.67;1.00;;;;;18.12;56.53;101406.59;5052748;28;55424;-73
2021/10/01 10:04:35;;;;;;;;;3.00;3.00;;;;;18.18;56.55;101415.41;5052180;28;45508;-74
2021/10/01 10:07:12;;;;;;;;;2.00;2.00;;;;;18.25;56.54;101401.06;5052863;28;45580;-75
2021/10/01 10:09:46;;;;;;;;;1.00;1.00;;;;;18.37;56.34;101409.84;5052329;28;45398;-74
2021/10/01 10:12:13;;;;;;;;;5.33;1.67;;;;;18.43;56.07;101413.34;5054251;28;46597;-73
2021/10/01 10:14:44;;;;;;;;;2.67;1.00;;;;;18.48;56.22;101402.56;5052705;28;45600;-74
2021/10/01 10:17:14;;;;;;;;;1.00;1.00;;;;;18.59;56.06;101409.59;5052988;28;45227;-73
2021/10/01 10:19:39;;;;;;;;;1.00;1.00;;;;;18.66;55.72;101404.16;5049254;28;45517;-75
2021/10/01 10:22:05;;;;;;;;;3.33;1.00;;;;;18.72;55.95;101398.75;5042676;28;46953;-74
2021/10/01 10:24:30;;;;;;;;;2.00;2.00;;;;;18.82;55.53;101403.94;5049975;28;58676;-74
2021/10/01 10:26:57;;;;;;;;;3.00;2.00;;;;;18.91;55.55;101388.66;5053990;28;46381;-74
2021/10/01 10:29:23;;;;;;;;;4.00;1.00;;;;;18.99;55.50;101381.41;5056284;28;45479;-73
2021/10/01 10:31:50;;;;;;;;;3.33;1.00;;;;;19.01;55.57;101385.81;5028098;28;46072;-75
2021/10/01 10:34:19;;;;;;;;;1.67;1.00;;;;;19.03;55.24;101385.81;5052892;28;45477;-75
2021/10/01 10:36:47;;;;;;;;;1.00;1.00;;;;;19.06;55.16;101385.75;5048520;28;45660;-76
2021/10/01 10:39:14;;;;;;;;;2.00;1.00;;;;;19.04;55.32;101384.91;5049699;28;45565;-75
2021/10/01 10:42:02;;;;;;;;;1.00;1.00;;;;;18.99;54.68;101370.69;5052583;28;47605;-77
2021/10/01 10:44:41;;;;;;;;;1.00;1.00;;;;;18.94;55.36;101365.41;5049580;28;45472;-76
2021/10/01 10:47:06;;;;;;;;;2.00;2.00;;;;;18.90;55.30;101354.78;5048735;28;45561;-75
2021/10/01 10:49:32;;;;;;;;;1.67;1.67;;;;;18.88;55.68;101352.13;5047513;28;54578;-74
2021/10/01 10:51:57;;;;;;;;;4.00;1.67;;;;;18.91;55.57;101354.78;5046634;28;45870;-77
2021/10/01 10:54:26;;;;;;;;;1.33;1.33;;;;;18.92;55.54;101350.31;5049684;28;45453;-73
2021/10/01 10:57:17;;;;;;;;;1.67;1.00;;;;;18.98;55.71;101358.25;5030526;28;45254;-74
2021/10/01 11:00:04;;;;;;;;;2.00;1.00;;;;;19.00;55.46;101354.63;5052541;28;45520;-77
2021/10/01 11:02:41;;;;;;;;;4.33;1.33;;;;;19.01;55.76;101336.75;5051725;28;46254;-77
2021/10/01 11:05:18;;;;;;;;;5.67;4.00;;;;;19.10;55.37;101342.84;5048444;28;45519;-75
2021/10/01 11:07:45;;;;;;;;;2.67;1.00;;;;;19.15;55.90;101348.13;5046212;28;45467;-75
2021/10/01 11:10:46;;;;;;;;;1.00;1.00;;;;;19.22;55.55;101341.75;5044962;28;45658;-74
2021/10/01 11:13:34;;;;;;;;;2.00;2.00;;;;;19.26;55.54;101339.94;5043710;28;47668;-78
2021/10/01 11:16:09;;;;;;;;;3.00;1.67;;;;;19.22;55.64;101332.84;5043227;28;59360;-76
2021/10/01 11:18:46;;;;;;;;;1.00;1.00;;;;;19.22;55.64;101323.03;5046581;28;45479;-78
2021/10/01 11:24:10;;;;;;;;;2.00;1.00;;;;;19.26;55.52;101316.72;5051357;28;46522;-75
2021/10/01 11:26:43;;;;;;;;;2.00;1.00;;;;;19.31;55.49;101320.19;5038576;28;45521;-75
2021/10/01 11:29:31;;;;;;;;;1.00;0.00;;;;;19.35;55.44;101321.91;5049665;28;45820;-74
2021/10/01 11:31:59;;;;;;;;;2.00;2.00;;;;;19.42;55.19;101320.00;5054664;28;45521;-74
2021/10/01 11:34:41;;;;;;;;;1.33;1.33;;;;;19.44;55.53;101319.97;5045175;28;46311;-75
2021/10/01 11:37:29;;;;;;;;;1.00;1.00;;;;;19.44;55.24;101311.94;5049604;28;45475;-75
2021/10/01 11:40:02;;;;;;;;;1.00;1.00;;;;;19.48;55.28;101305.63;5043692;28;45561;-75
2021/10/01 11:42:34;;;;;;;;;1.33;0.33;;;;;19.59;55.20;101322.41;5031269;28;46624;-75
2021/10/01 11:45:09;;;;;;;;;1.00;1.00;;;;;19.63;55.06;101297.34;5039386;28;46975;-77
2021/10/01 11:47:35;;;;;;;;;0.33;0.33;;;;;19.80;55.46;101313.97;5039264;28;45437;-74
2021/10/01 11:50:01;;;;;;;;;2.00;1.00;;;;;19.87;54.91;101296.88;5040760;28;45450;-74
2021/10/01 11:52:27;;;;;;;;;0.33;0.33;;;;;19.88;55.04;101301.31;5048296;28;49858;-74
2021/10/01 11:54:58;;;;;;;;;3.67;0.67;;;;;19.97;54.70;101297.56;5048982;28;45890;-76
2021/10/01 11:57:23;;;;;;;;;4.00;1.00;;;;;20.08;54.76;101300.00;5046979;28;46025;-75
2021/10/01 11:59:53;;;;;;;;;0.00;0.00;;;;;20.29;54.71;101287.94;5051463;28;45476;-76
2021/10/01 12:02:29;;;;;;;;;0.67;0.67;;;;;20.44;54.74;101279.56;5057910;28;46016;-75
2021/10/01 12:04:54;;;;;;;;;1.00;0.33;;;;;20.56;54.07;101270.38;5048487;28;46311;-76
2021/10/01 12:07:19;;;;;;;;;2.00;1.00;;;;;20.70;54.06;101284.38;5046556;28;45970;-75
2021/10/01 12:10:05;;;;;;;;;5.33;1.33;;;;;20.69;53.59;101271.00;5045995;28;54829;-76
2021/10/01 12:12:31;;;;;;;;;1.33;0.33;;;;;20.61;54.10;101266.69;5050733;28;45614;-77
2021/10/01 12:14:56;;;;;;;;;1.00;1.00;;;;;20.50;54.25;101271.41;5026237;28;59504;-74
2021/10/01 12:17:21;;;;;;;;;1.67;1.67;;;;;20.43;54.08;101269.75;5053185;28;56513;-75
2021/10/01 12:19:47;;;;;;;;;1.67;0.00;;;;;20.36;54.20;101282.44;5050657;28;45505;-76
2021/10/01 12:22:14;;;;;;;;;0.00;0.00;;;;;20.29;54.64;101263.81;5029973;28;55154;-77
2021/10/01 12:24:44;;;;;;;;;0.67;0.67;;;;;20.28;54.36;101268.28;5025371;28;47536;-76
2021/10/01 12:27:09;;;;;;;;;1.00;1.00;;;;;20.25;54.91;101270.19;5053137;28;45545;-77
2021/10/01 12:29:44;;;;;;;;;2.00;1.00;;;;;20.11;54.68;101255.25;5051701;28;46117;-76
2021/10/01 12:32:10;;;;;;;;;2.33;0.00;;;;;20.09;55.38;101254.41;5043578;28;45391;-76
2021/10/01 12:34:41;;;;;;;;;0.00;0.00;;;;;20.05;55.22;101242.00;5044076;28;46423;-76
2021/10/01 12:37:11;;;;;;;;;2.67;1.67;;;;;20.07;54.62;101233.91;5052034;28;45430;-76
2021/10/01 12:39:38;;;;;;;;;1.00;1.00;;;;;20.13;55.30;101242.72;5050077;28;45484;-74
2021/10/01 12:42:06;;;;;;;;;2.67;1.00;;;;;20.19;54.74;101238.13;5050638;28;45478;-75
2021/10/01 12:44:36;;;;;;;;;2.00;1.00;;;;;20.19;54.79;101244.38;5044496;28;47003;-75
2021/10/01 12:47:11;;;;;;;;;1.00;1.00;;;;;20.22;55.15;101243.41;5047048;28;45474;-75
2021/10/01 12:49:37;;;;;;;;;4.00;1.00;;;;;20.21;55.15;101242.53;5045040;28;45737;-74
2021/10/01 12:52:11;;;;;;;;;18.00;3.67;;;;;20.18;55.13;101233.66;5048273;28;45483;-74
2021/10/01 12:54:46;;;;;;;;;21.67;11.67;;;;;20.11;55.01;101238.28;5049825;28;45922;-74
2021/10/01 12:57:46;;;;;;;;;2.67;0.67;;;;;20.01;54.99;101234.03;5052699;28;45427;-73
2021/10/01 13:00:23;;;;;;;;;0.00;0.00;;;;;19.94;55.12;101224.38;5032425;28;45508;-73
2021/10/01 13:02:50;;;;;;;;;2.00;1.00;;;;;19.88;55.20;101220.03;5054760;28;45387;-76
2021/10/01 13:05:22;;;;;;;;;2.67;0.67;;;;;19.84;55.76;101226.38;5051023;28;46687;-74